Sturgeon Bay, WI (54235)

7:05 PM CDT on August 29, 2016 (GMT -0500)
Leif Everson Observatory | | Change Station

Elev 636 ft 44.83 °N, 87.34 °W | Updated 2 minutes ago

Clear
Clear
72.1 °F
Feels Like 70 °F
N
3.0
Wind Variable Wind from South
Gusts 3.0 mph

Today
High -- | Low -- °F
--% Chance of Precip.
Yesterday
High -- | Low -- °F
Precip. -- in
Pressure 30.22 in
Visibility 10.0 miles
Clouds Clear
Heat Index 70 °F
Dew Point 68 °F
Humidity 88%
Rainfall 0.00 in
Snow Depth Not available.
6:08 AM 7:30 PM
Waning Crescent, 6% visible
METAR KSUE 292356Z AUTO 17007KT 10SM CLR 23/19 A3018 RMK AO2 SLP234 60002 T02330189 10267 20233 50000
Pressure 30.22 in
Visibility 10.0 miles
Clouds Clear
Heat Index 70 °F
Dew Point 68 °F
Humidity 88%
Rainfall 0.00 in
Snow Depth Not available.
6:08 AM 7:30 PM
Waning Crescent, 6% visible
METAR KSUE 292356Z AUTO 17007KT 10SM CLR 23/19 A3018 RMK AO2 SLP234 60002 T02330189 10267 20233 50000

10-Day Weather Forecast

Almanac

Astronomy

Aug. 29, 2016 Rise Set
Actual Time
Civil Twilight
Nautical Twilight
Astronomical Twilight
Moon
Length of Visible Light
Length of Day
Tomorrow will be .
, % of the Moon is Illuminated

Today's Extremes

State Highs State Lows

Community

WunderPhotos

Upload Photos

1,935,699 photos uploaded!

WunderBlog® & News

Nearby

Air Quality

  Air Quality AQ Index Pollutant
Not available.

Snow Depth

Station Depth Elevation

Earthquake Activity

City Distance Mag. Time & Date
Minimum magnitude displayed is 2.5.

Coastal Water Temperatures

Place Temperature

Stations

Nearby Weather Stations

Station Location Temp. Windchill Dew Point Humidity Wind Precip. Elev Updated Type
                   

Watches & Warnings

There are currently no watches in effect.